Terminal Aerodrome Forecast
Issued by NWS Tuscon, AZ

Home | Current Version | Previous Version | Text Only | Print | Product List | Glossary On
Versions: 1 2 3 4 5 6 7 8 9 10 11 12 13
000
FTUS45 KTWC 240000 AAA
TAFTUS
TAF AMD
KTUS 240040Z 2401/2424 08010KT P6SM VCTS SCT080CB BKN120
     FM240300 12008KT P6SM SCT100 BKN160
     FM241100 13013KT P6SM FEW120 SCT200
     FM242100 16008KT P6SM FEW090 SCT200=

USA.gov is the U.S. government's official web portal to all federal, state and local government web resources and services.